Buckhorn, Canada
Current Conditions -  °F | °C
As of 12:00 AM on Monday 22 Dec 2014 (Local Time) from CYPQ Reporting Station
NA  
Wind Chill: 27°   Ceiling: NA
Heat Index: 27°   Visibility: 9mi
Dew Point: 27°   Wind: 0mph
Humidity: 100%   Direction: NA
Pressure: 30.28"   Gusts: NA
Location:  44.55°N, 78.33°W
Report Text: CYPQ 220500Z AUTO 00000KT 9SM M03/M03 A3028 RMK CLD MISG SLP264
Loading
Personal Weather Stations






























Interactive Weather Map New forecast layout! Learn more

10-Day Weather Forecast

Advertisements
Track Severe Weather on mobile